Time;durP1;ratioP1;P1;durP2;ratioP2;P2;SDS_P1;SDS_P2;PMS_P1;PMS_P2;Temp;Humidity;BMP_temperature;BMP_pressure;BME280_temperature;BME280_humidity;BME280_pressure;Samples;Min_cycle;Max_cycle;Signal;HPM_P1;HPM_P2
2021/07/25 00:01:51;;;;;;;9.82;5.57;;;20.30;99.90;;;;;;5005196;28;20085;-80
2021/07/25 00:04:18;;;;;;;9.93;5.75;;;20.30;99.90;;;;;;5005166;28;20050;-77
2021/07/25 00:06:45;;;;;;;9.63;5.72;;;20.20;99.90;;;;;;5002131;28;20092;-79
2021/07/25 00:09:13;;;;;;;9.38;5.70;;;20.20;99.90;;;;;;5004112;28;20102;-80
2021/07/25 00:11:40;;;;;;;9.27;5.68;;;20.10;99.90;;;;;;4998024;28;20048;-79
2021/07/25 00:14:07;;;;;;;8.65;5.40;;;20.10;99.90;;;;;;4994242;28;20046;-80
2021/07/25 00:16:35;;;;;;;7.85;5.18;;;20.00;99.90;;;;;;4994744;28;20049;-80
2021/07/25 00:19:02;;;;;;;8.57;4.63;;;20.10;99.90;;;;;;4993666;28;20133;-80
2021/07/25 00:21:29;;;;;;;8.07;5.10;;;20.10;99.90;;;;;;4994691;28;20129;-80
2021/07/25 00:23:58;;;;;;;7.97;4.53;;;20.10;99.90;;;;;;4994555;28;20046;-78
2021/07/25 00:26:32;;;;;;;7.05;4.68;;;20.20;99.90;;;;;;4994589;28;20061;-80
2021/07/25 00:29:00;;;;;;;6.93;4.32;;;20.20;99.90;;;;;;4991255;28;20050;-80
2021/07/25 00:31:29;;;;;;;7.88;5.35;;;20.20;99.90;;;;;;4986804;28;20053;-82
2021/07/25 00:33:57;;;;;;;7.32;3.80;;;20.20;99.90;;;;;;4994213;28;20060;-79
2021/07/25 00:36:24;;;;;;;7.35;4.25;;;20.20;99.90;;;;;;4992697;28;20526;-78
2021/07/25 00:38:51;;;;;;;7.30;4.50;;;20.20;99.90;;;;;;4994397;28;20050;-80
2021/07/25 00:41:19;;;;;;;7.97;4.30;;;20.20;99.90;;;;;;4989964;28;20068;-81
2021/07/25 00:43:49;;;;;;;7.07;4.45;;;20.20;99.90;;;;;;4994149;28;20129;-79
2021/07/25 00:46:17;;;;;;;6.97;4.65;;;20.20;99.90;;;;;;4994145;28;20053;-80
2021/07/25 00:48:46;;;;;;;6.70;4.45;;;20.20;99.90;;;;;;4993956;28;20060;-80
2021/07/25 00:51:14;;;;;;;6.40;4.20;;;20.30;99.90;;;;;;4994199;28;20100;-79
2021/07/25 00:53:44;;;;;;;5.97;4.10;;;20.30;99.90;;;;;;4994435;28;20117;-79
2021/07/25 00:56:12;;;;;;;6.63;4.13;;;20.30;99.90;;;;;;4987874;28;20058;-78
2021/07/25 00:58:42;;;;;;;7.40;4.53;;;20.30;99.90;;;;;;4993819;28;20062;-81
2021/07/25 01:01:13;;;;;;;8.38;4.80;;;20.40;99.90;;;;;;4994002;28;20065;-79
2021/07/25 01:03:56;;;;;;;8.02;5.03;;;20.40;99.90;;;;;;4993943;28;20046;-80
2021/07/25 01:06:37;;;;;;;9.45;5.40;;;20.40;99.90;;;;;;4993837;28;20089;-81
2021/07/25 01:09:10;;;;;;;8.82;5.00;;;20.40;99.90;;;;;;4993912;28;20057;-80
2021/07/25 01:11:41;;;;;;;8.63;5.13;;;20.40;99.90;;;;;;4987950;28;20129;-79
2021/07/25 01:14:09;;;;;;;7.45;5.20;;;20.30;99.90;;;;;;4996519;28;20129;-77
2021/07/25 01:16:38;;;;;;;9.30;5.35;;;20.30;99.90;;;;;;4994079;28;20136;-81
2021/07/25 01:19:05;;;;;;;8.63;5.10;;;20.30;99.90;;;;;;4993178;28;20050;-77
2021/07/25 01:21:33;;;;;;;9.75;4.55;;;20.30;99.90;;;;;;4992740;28;20046;-78
2021/07/25 01:24:00;;;;;;;7.60;4.85;;;20.30;99.90;;;;;;4996924;28;20137;-78
2021/07/25 01:26:30;;;;;;;7.57;4.85;;;20.30;99.90;;;;;;5005116;28;20187;-79
2021/07/25 01:29:00;;;;;;;8.25;4.82;;;20.30;99.90;;;;;;4997419;28;20559;-79
2021/07/25 01:31:38;;;;;;;9.00;4.93;;;20.30;99.90;;;;;;4993137;28;20466;-78
2021/07/25 01:34:06;;;;;;;8.75;4.90;;;20.30;99.90;;;;;;4993434;28;20046;-77
2021/07/25 01:36:39;;;;;;;8.63;4.90;;;20.40;99.90;;;;;;4992759;28;20052;-79
2021/07/25 01:39:07;;;;;;;9.35;5.35;;;20.40;99.90;;;;;;4993896;28;20448;-79
2021/07/25 01:41:43;;;;;;;9.30;5.63;;;20.40;99.90;;;;;;4993499;28;20047;-80
2021/07/25 01:44:11;;;;;;;9.20;5.15;;;20.40;99.90;;;;;;4993519;28;20043;-80
2021/07/25 01:46:39;;;;;;;7.72;5.05;;;20.40;99.90;;;;;;4993712;28;20082;-80
2021/07/25 01:49:06;;;;;;;7.85;4.57;;;20.40;99.90;;;;;;4993179;28;20511;-79
2021/07/25 01:51:35;;;;;;;7.20;4.53;;;20.40;99.90;;;;;;4993208;28;20058;-80
2021/07/25 01:54:02;;;;;;;6.78;4.53;;;20.40;99.90;;;;;;4993476;28;20051;-80
2021/07/25 01:56:29;;;;;;;10.43;5.35;;;20.40;99.90;;;;;;4993522;28;20050;-79
2021/07/25 01:58:56;;;;;;;9.60;5.75;;;20.40;99.90;;;;;;4993389;28;20047;-80
2021/07/25 02:01:24;;;;;;;8.23;5.05;;;20.40;99.90;;;;;;4993273;28;20074;-79
2021/07/25 02:03:51;;;;;;;9.18;5.25;;;20.30;99.90;;;;;;4993003;28;20077;-79
2021/07/25 02:06:18;;;;;;;9.93;5.88;;;20.30;99.90;;;;;;4992851;28;20046;-79
2021/07/25 02:08:46;;;;;;;11.50;6.00;;;20.20;99.90;;;;;;4993495;28;20050;-79
2021/07/25 02:11:13;;;;;;;8.73;5.70;;;20.10;99.90;;;;;;4993052;28;20046;-80
2021/07/25 02:13:40;;;;;;;10.55;6.40;;;20.00;99.90;;;;;;4993257;28;20068;-79
2021/07/25 02:16:07;;;;;;;10.38;6.00;;;20.00;99.90;;;;;;4993032;28;20050;-80
2021/07/25 02:18:34;;;;;;;11.60;6.15;;;19.90;99.90;;;;;;4993222;28;20124;-79
2021/07/25 02:21:01;;;;;;;12.00;6.70;;;19.80;99.90;;;;;;4993344;28;20046;-80
2021/07/25 02:23:28;;;;;;;12.60;6.22;;;19.70;99.90;;;;;;4993283;28;20064;-80
2021/07/25 02:25:56;;;;;;;12.40;5.97;;;19.60;99.90;;;;;;4993259;28;20145;-80
2021/07/25 02:28:23;;;;;;;9.50;6.03;;;19.50;99.90;;;;;;4993037;28;20483;-80
2021/07/25 02:30:50;;;;;;;10.45;6.00;;;19.60;99.90;;;;;;4993241;28;20072;-77
2021/07/25 02:33:17;;;;;;;11.38;6.28;;;19.60;99.90;;;;;;4994093;28;20056;-81
2021/07/25 02:35:44;;;;;;;11.25;6.50;;;19.60;99.90;;;;;;4996994;28;20043;-80
2021/07/25 02:38:11;;;;;;;8.82;5.60;;;19.60;99.90;;;;;;4996546;28;20058;-80
2021/07/25 02:40:38;;;;;;;11.88;6.00;;;19.60;99.90;;;;;;4996727;28;20052;-80
2021/07/25 02:43:07;;;;;;;10.43;5.93;;;19.70;99.90;;;;;;4996507;28;20058;-79
2021/07/25 02:45:34;;;;;;;7.05;5.35;;;19.70;99.90;;;;;;4996008;28;20042;-79
2021/07/25 02:48:01;;;;;;;10.68;5.97;;;19.70;99.90;;;;;;4996680;28;20137;-79
2021/07/25 02:50:28;;;;;;;13.27;7.05;;;19.70;99.90;;;;;;4996687;28;20129;-79
2021/07/25 02:52:55;;;;;;;11.48;7.00;;;19.80;99.90;;;;;;4996660;28;20053;-79
2021/07/25 02:55:22;;;;;;;12.32;6.45;;;19.80;99.90;;;;;;4996280;28;20053;-79
2021/07/25 02:57:49;;;;;;;10.23;6.88;;;19.80;99.90;;;;;;4996314;28;20050;-78
2021/07/25 03:00:19;;;;;;;12.52;6.80;;;19.70;99.90;;;;;;5000674;28;20046;-79
2021/07/25 03:02:46;;;;;;;9.38;6.18;;;19.70;99.90;;;;;;5001012;28;20092;-81
2021/07/25 03:05:13;;;;;;;9.38;6.40;;;19.70;99.90;;;;;;4995648;28;20056;-79
2021/07/25 03:07:41;;;;;;;9.32;6.45;;;19.70;99.90;;;;;;4994729;28;20134;-80
2021/07/25 03:10:09;;;;;;;12.55;6.38;;;19.70;99.90;;;;;;4994157;28;20054;-81
2021/07/25 03:12:36;;;;;;;11.90;6.55;;;19.70;99.90;;;;;;4993558;28;20056;-80
2021/07/25 03:15:04;;;;;;;9.68;6.10;;;19.70;99.90;;;;;;4993735;28;20080;-80
2021/07/25 03:17:32;;;;;;;11.25;6.28;;;19.70;99.90;;;;;;4987143;28;20053;-78
2021/07/25 03:19:59;;;;;;;13.77;7.13;;;19.70;99.90;;;;;;4994991;28;20042;-79
2021/07/25 03:22:27;;;;;;;15.68;6.20;;;19.70;99.90;;;;;;4998578;28;20136;-77
2021/07/25 03:24:54;;;;;;;8.70;5.72;;;19.70;99.90;;;;;;4997454;28;20046;-77
2021/07/25 03:27:21;;;;;;;15.10;6.07;;;19.80;99.90;;;;;;4994560;28;20518;-78
2021/07/25 03:29:48;;;;;;;9.82;5.75;;;19.80;99.90;;;;;;4993346;28;20047;-78
2021/07/25 03:32:18;;;;;;;21.80;6.18;;;19.80;99.90;;;;;;4993256;28;20089;-79
2021/07/25 03:34:47;;;;;;;9.55;5.70;;;19.80;99.90;;;;;;4993589;28;20086;-79
2021/07/25 03:37:16;;;;;;;12.13;6.03;;;19.80;99.90;;;;;;4993398;28;20057;-80
2021/07/25 03:39:44;;;;;;;10.27;5.47;;;19.80;99.90;;;;;;4993191;28;20054;-76
2021/07/25 03:42:13;;;;;;;9.30;5.70;;;19.90;99.90;;;;;;4992693;28;20069;-79
2021/07/25 03:44:41;;;;;;;10.80;5.60;;;19.90;99.90;;;;;;4992670;28;20046;-79
2021/07/25 03:47:10;;;;;;;9.20;5.90;;;19.90;99.90;;;;;;4993265;28;20141;-79
2021/07/25 03:49:39;;;;;;;9.68;5.72;;;19.90;99.90;;;;;;4993599;28;20038;-78
2021/07/25 03:52:08;;;;;;;8.82;5.38;;;19.90;99.90;;;;;;4992954;28;20093;-80
2021/07/25 03:54:38;;;;;;;8.15;5.63;;;20.00;99.90;;;;;;4992864;28;20046;-76
2021/07/25 03:57:06;;;;;;;8.63;5.20;;;20.00;99.90;;;;;;4992816;28;20082;-77
2021/07/25 03:59:33;;;;;;;8.75;5.72;;;20.00;99.90;;;;;;4993286;28;20069;-80
2021/07/25 04:02:00;;;;;;;9.10;5.78;;;20.00;99.90;;;;;;4993642;28;20404;-79
2021/07/25 04:04:27;;;;;;;12.70;7.18;;;20.00;99.90;;;;;;4994762;28;20046;-79
2021/07/25 04:06:54;;;;;;;14.30;9.50;;;20.00;99.90;;;;;;4995114;28;20133;-79
2021/07/25 04:09:23;;;;;;;15.70;9.85;;;20.00;99.90;;;;;;4994547;28;20415;-78
2021/07/25 04:11:51;;;;;;;15.48;9.80;;;20.00;99.90;;;;;;4995012;28;20141;-79
2021/07/25 04:14:18;;;;;;;11.40;6.60;;;20.00;99.90;;;;;;4994928;28;20046;-79
2021/07/25 04:16:45;;;;;;;8.68;6.00;;;20.00;99.90;;;;;;4994871;28;20472;-78
2021/07/25 04:19:12;;;;;;;7.55;5.10;;;20.00;99.90;;;;;;4994733;28;20049;-75
2021/07/25 04:21:39;;;;;;;8.65;4.93;;;20.00;99.90;;;;;;4994536;28;20400;-75
2021/07/25 04:24:07;;;;;;;7.85;5.13;;;20.00;99.90;;;;;;4994250;28;20382;-75
2021/07/25 04:26:37;;;;;;;10.30;5.60;;;20.00;99.90;;;;;;5029592;22;20152;-76
2021/07/25 04:29:04;;;;;;;9.27;5.28;;;20.00;99.90;;;;;;5029601;28;20081;-77
2021/07/25 04:31:33;;;;;;;8.90;5.40;;;20.00;99.90;;;;;;5027957;28;20037;-78
2021/07/25 04:34:00;;;;;;;8.13;5.28;;;20.00;99.90;;;;;;5033825;28;20053;-75
2021/07/25 04:36:29;;;;;;;10.20;5.63;;;20.00;99.90;;;;;;5033134;28;20073;-77
2021/07/25 04:38:58;;;;;;;7.70;5.10;;;20.00;99.90;;;;;;5033648;28;20052;-78
2021/07/25 04:41:29;;;;;;;9.57;5.07;;;20.00;99.90;;;;;;5033451;28;20043;-79
2021/07/25 04:44:06;;;;;;;7.75;4.78;;;20.00;99.90;;;;;;5033420;28;20132;-77
2021/07/25 04:46:35;;;;;;;8.43;4.97;;;20.00;99.90;;;;;;5028959;28;20072;-77
2021/07/25 04:49:09;;;;;;;8.07;5.20;;;20.00;99.90;;;;;;5033379;28;20053;-78
2021/07/25 04:51:39;;;;;;;7.38;5.28;;;20.00;99.90;;;;;;5026450;28;20051;-77
2021/07/25 04:54:08;;;;;;;7.93;5.07;;;20.00;99.90;;;;;;5031030;28;20042;-76
2021/07/25 04:56:56;;;;;;;6.63;4.22;;;20.00;99.90;;;;;;5033013;28;20067;-76
2021/07/25 04:59:29;;;;;;;7.38;4.53;;;20.00;99.90;;;;;;5033107;28;20388;-76
2021/07/25 05:02:00;;;;;;;5.85;4.35;;;20.00;99.90;;;;;;5033550;28;20049;-77
2021/07/25 05:04:29;;;;;;;7.65;4.90;;;20.00;99.90;;;;;;5032914;28;20045;-74
2021/07/25 05:06:57;;;;;;;8.55;4.93;;;20.00;99.90;;;;;;5033388;28;20049;-76
2021/07/25 05:09:25;;;;;;;7.50;4.45;;;20.00;99.90;;;;;;5032653;28;20103;-79
2021/07/25 05:11:56;;;;;;;6.75;4.32;;;20.00;99.90;;;;;;5033145;28;20049;-75
2021/07/25 05:14:31;;;;;;;8.23;4.68;;;20.10;99.90;;;;;;5032913;28;20124;-78
2021/07/25 05:17:17;;;;;;;7.35;4.55;;;20.10;99.90;;;;;;5033256;28;20053;-76
2021/07/25 05:19:57;;;;;;;7.40;4.82;;;20.20;99.90;;;;;;5027833;28;20045;-76
2021/07/25 05:22:43;;;;;;;8.90;5.25;;;20.20;99.90;;;;;;5032951;28;20060;-76
2021/07/25 05:25:11;;;;;;;7.40;4.80;;;20.20;99.90;;;;;;5032904;28;20045;-75
2021/07/25 05:27:43;;;;;;;6.95;4.70;;;20.30;99.90;;;;;;5033083;28;20055;-75
2021/07/25 05:30:15;;;;;;;8.63;4.97;;;20.30;99.90;;;;;;5032341;28;20494;-77
2021/07/25 05:32:42;;;;;;;7.75;4.63;;;20.30;99.90;;;;;;5032949;28;20045;-77
2021/07/25 05:35:10;;;;;;;9.07;5.22;;;20.30;99.90;;;;;;5027623;28;20109;-76
2021/07/25 05:37:38;;;;;;;8.35;4.72;;;20.30;99.90;;;;;;5031165;28;20124;-76
2021/07/25 05:40:07;;;;;;;8.43;5.00;;;20.20;99.90;;;;;;5032671;28;20052;-76
2021/07/25 05:42:34;;;;;;;6.45;4.38;;;20.20;99.90;;;;;;5032686;28;20394;-78
2021/07/25 05:45:02;;;;;;;7.80;4.68;;;20.20;99.90;;;;;;5032181;28;20128;-80
2021/07/25 05:47:30;;;;;;;6.85;4.38;;;20.30;99.90;;;;;;5032793;28;20132;-80
2021/07/25 05:49:57;;;;;;;6.97;4.65;;;20.30;99.90;;;;;;5029972;28;20053;-79
2021/07/25 05:52:24;;;;;;;7.32;5.03;;;20.40;99.90;;;;;;5028610;28;20045;-79
2021/07/25 05:54:51;;;;;;;8.18;4.93;;;20.40;99.90;;;;;;5032055;28;20045;-80
2021/07/25 05:57:18;;;;;;;7.28;4.80;;;20.50;99.90;;;;;;5038137;28;20051;-79
2021/07/25 05:59:45;;;;;;;7.10;4.80;;;20.50;99.90;;;;;;5032167;28;20083;-77
2021/07/25 06:02:12;;;;;;;7.85;4.75;;;20.60;99.90;;;;;;5032235;28;20042;-78
2021/07/25 06:04:42;;;;;;;8.93;5.43;;;20.60;99.90;;;;;;5031251;28;20038;-80
2021/07/25 06:07:09;;;;;;;9.27;5.47;;;20.70;99.90;;;;;;5031978;28;20041;-74
2021/07/25 06:09:36;;;;;;;8.90;5.07;;;20.70;99.90;;;;;;5035796;28;20487;-78
2021/07/25 06:12:04;;;;;;;7.60;4.90;;;20.80;99.90;;;;;;5035725;28;20570;-78
2021/07/25 06:14:31;;;;;;;8.02;5.15;;;20.90;99.90;;;;;;5028403;28;20182;-77
2021/07/25 06:16:58;;;;;;;7.03;5.03;;;21.00;99.90;;;;;;5032354;28;20049;-78
2021/07/25 06:19:25;;;;;;;7.70;4.65;;;21.00;99.90;;;;;;5034552;28;20512;-79
2021/07/25 06:21:53;;;;;;;7.10;4.80;;;21.10;99.90;;;;;;5035624;28;20132;-82
2021/07/25 06:24:20;;;;;;;6.80;4.30;;;21.10;99.90;;;;;;5018417;28;20136;-79
2021/07/25 06:26:47;;;;;;;7.05;4.47;;;21.20;99.90;;;;;;5035746;28;20045;-78
2021/07/25 06:29:14;;;;;;;6.20;3.90;;;21.30;99.90;;;;;;5035815;28;20049;-80
2021/07/25 06:31:41;;;;;;;7.47;4.43;;;21.30;99.90;;;;;;5035430;28;20037;-79
2021/07/25 06:34:08;;;;;;;5.68;4.07;;;21.40;99.90;;;;;;5036538;28;20128;-80
2021/07/25 06:36:35;;;;;;;6.50;4.22;;;21.50;99.90;;;;;;5035501;28;20048;-77
2021/07/25 06:39:07;;;;;;;6.47;4.20;;;21.60;99.90;;;;;;5034585;28;20380;-77
2021/07/25 06:41:34;;;;;;;7.15;4.40;;;21.70;99.90;;;;;;5033162;28;20041;-79
2021/07/25 06:44:01;;;;;;;6.07;4.30;;;21.80;99.90;;;;;;5034922;28;20405;-80
2021/07/25 06:46:28;;;;;;;6.65;4.47;;;21.90;99.90;;;;;;5027854;28;20042;-76
2021/07/25 06:48:55;;;;;;;5.97;4.50;;;22.00;99.90;;;;;;5035298;28;20128;-77
2021/07/25 06:51:22;;;;;;;7.25;4.40;;;22.00;99.90;;;;;;5035055;28;20128;-76
2021/07/25 06:53:50;;;;;;;8.38;4.57;;;22.10;99.90;;;;;;5035748;28;20128;-79
2021/07/25 06:56:18;;;;;;;7.30;4.35;;;22.10;99.90;;;;;;5035108;28;20041;-78
2021/07/25 06:58:45;;;;;;;6.55;4.13;;;22.20;99.90;;;;;;5035139;28;20060;-76
2021/07/25 07:01:12;;;;;;;7.05;4.78;;;22.20;99.90;;;;;;5034645;28;20041;-78
2021/07/25 07:03:39;;;;;;;6.88;4.35;;;22.30;99.90;;;;;;5035129;28;20477;-79
2021/07/25 07:06:07;;;;;;;7.38;4.80;;;22.30;99.90;;;;;;5034953;28;20128;-80
2021/07/25 07:08:35;;;;;;;7.63;3.90;;;22.30;99.90;;;;;;5034964;28;20041;-79
2021/07/25 07:11:02;;;;;;;6.88;4.28;;;22.40;99.90;;;;;;5035346;28;20141;-78
2021/07/25 07:13:31;;;;;;;6.45;4.45;;;22.40;99.90;;;;;;5029000;28;20518;-79
2021/07/25 07:15:58;;;;;;;6.43;4.05;;;22.50;99.90;;;;;;5042324;28;20129;-78
2021/07/25 07:18:25;;;;;;;6.65;4.38;;;22.60;99.80;;;;;;5040926;28;20056;-78
2021/07/25 07:20:52;;;;;;;6.15;3.85;;;22.60;99.60;;;;;;5040212;28;20060;-79
2021/07/25 07:23:24;;;;;;;5.60;4.07;;;22.60;99.80;;;;;;5041576;28;20132;-78
2021/07/25 07:25:53;;;;;;;7.07;4.50;;;22.60;99.60;;;;;;5039942;28;20049;-76
2021/07/25 07:28:23;;;;;;;5.75;3.70;;;22.70;99.70;;;;;;5036466;28;20057;-77
2021/07/25 07:30:52;;;;;;;6.20;3.63;;;22.70;99.70;;;;;;5035117;28;20045;-80
2021/07/25 07:33:21;;;;;;;4.95;3.50;;;22.70;99.70;;;;;;5034515;28;20037;-78
2021/07/25 07:35:50;;;;;;;6.50;4.20;;;22.70;99.70;;;;;;5034837;28;20136;-78
2021/07/25 07:38:19;;;;;;;6.22;4.20;;;22.70;99.50;;;;;;5034188;28;20138;-78
2021/07/25 07:40:46;;;;;;;6.45;4.15;;;22.70;99.60;;;;;;5028991;28;20053;-78
2021/07/25 07:43:16;;;;;;;6.57;4.10;;;22.70;99.50;;;;;;5038864;28;20104;-78
2021/07/25 07:45:44;;;;;;;6.63;4.70;;;22.70;99.60;;;;;;5043372;28;20045;-76
2021/07/25 07:48:13;;;;;;;6.22;4.05;;;22.70;99.10;;;;;;5038388;28;20053;-74
2021/07/25 07:50:42;;;;;;;6.97;3.60;;;22.60;99.10;;;;;;5041209;28;20049;-76
2021/07/25 07:53:09;;;;;;;5.45;3.50;;;22.70;99.40;;;;;;5042947;28;20466;-78
2021/07/25 07:55:36;;;;;;;8.27;4.50;;;22.70;99.70;;;;;;5049967;28;20072;-76
2021/07/25 07:58:04;;;;;;;6.35;4.28;;;22.70;99.40;;;;;;5048950;28;20080;-79
2021/07/25 08:00:31;;;;;;;6.90;4.28;;;22.70;99.20;;;;;;5035446;28;20129;-81
2021/07/25 08:02:58;;;;;;;6.65;3.80;;;22.70;99.30;;;;;;5035493;28;20554;-77
2021/07/25 08:05:26;;;;;;;5.65;3.97;;;22.70;99.60;;;;;;5034448;28;20137;-79
2021/07/25 08:07:53;;;;;;;6.07;3.80;;;22.70;99.50;;;;;;5034897;28;20055;-79
2021/07/25 08:10:20;;;;;;;7.57;4.00;;;22.80;99.80;;;;;;5034813;28;20049;-79
2021/07/25 08:12:47;;;;;;;6.45;4.32;;;22.80;99.90;;;;;;5034515;28;20500;-80
2021/07/25 08:15:15;;;;;;;6.63;4.10;;;22.90;99.90;;;;;;5035802;28;20133;-78
2021/07/25 08:17:42;;;;;;;7.38;4.38;;;23.00;99.70;;;;;;5034214;28;20073;-79
2021/07/25 08:20:11;;;;;;;5.72;3.75;;;23.00;99.50;;;;;;5037189;28;20149;-77
2021/07/25 08:22:39;;;;;;;6.25;4.00;;;23.00;99.50;;;;;;5035377;28;20552;-78
2021/07/25 08:25:07;;;;;;;7.68;4.43;;;23.10;99.30;;;;;;5034690;28;20182;-76
2021/07/25 08:27:35;;;;;;;6.43;4.22;;;23.10;99.10;;;;;;5032379;28;20597;-75
2021/07/25 08:30:03;;;;;;;6.75;4.35;;;23.10;99.20;;;;;;5028653;28;20049;-78
2021/07/25 08:32:30;;;;;;;7.90;4.90;;;23.20;99.00;;;;;;5031540;28;20081;-78
2021/07/25 08:34:58;;;;;;;9.77;6.72;;;23.30;98.80;;;;;;5033956;28;20129;-76
2021/07/25 08:37:25;;;;;;;14.40;8.90;;;23.40;98.80;;;;;;5033874;28;20124;-79
2021/07/25 08:39:54;;;;;;;9.13;6.32;;;23.40;98.70;;;;;;5034048;28;20508;-77
2021/07/25 08:42:24;;;;;;;7.97;4.60;;;23.40;98.60;;;;;;5034923;28;20042;-75
2021/07/25 08:44:53;;;;;;;6.55;4.28;;;23.50;97.90;;;;;;5039507;28;20120;-76
2021/07/25 08:47:34;;;;;;;6.22;4.10;;;23.50;97.60;;;;;;5035498;28;20072;-77
2021/07/25 08:50:03;;;;;;;7.88;4.13;;;23.50;97.50;;;;;;5033719;28;20042;-78
2021/07/25 08:52:32;;;;;;;6.53;4.32;;;23.50;97.20;;;;;;5032738;28;20140;-78
2021/07/25 08:55:03;;;;;;;9.10;4.20;;;23.50;96.90;;;;;;5033991;28;20453;-77
2021/07/25 08:57:34;;;;;;;7.07;4.05;;;23.50;96.70;;;;;;5026659;28;20060;-79
2021/07/25 09:00:02;;;;;;;6.63;4.05;;;23.60;96.80;;;;;;5034215;28;20137;-78
2021/07/25 09:02:31;;;;;;;7.20;4.13;;;23.60;96.80;;;;;;5025703;28;20042;-80
2021/07/25 09:04:59;;;;;;;6.13;4.00;;;23.70;96.90;;;;;;5033972;28;20073;-78
2021/07/25 09:07:29;;;;;;;6.13;3.85;;;23.80;97.20;;;;;;5032792;28;20045;-78
2021/07/25 09:10:01;;;;;;;6.30;4.43;;;23.80;96.70;;;;;;5033505;28;20128;-80
2021/07/25 09:12:30;;;;;;;7.78;4.20;;;23.70;96.20;;;;;;5033585;28;20105;-80
2021/07/25 09:15:01;;;;;;;7.00;3.90;;;23.70;96.20;;;;;;5032157;28;20057;-77
2021/07/25 09:17:29;;;;;;;6.25;4.00;;;23.70;96.20;;;;;;5031637;28;20136;-76
2021/07/25 09:20:23;;;;;;;6.25;4.30;;;23.70;96.20;;;;;;5030080;28;20490;-78
2021/07/25 09:23:16;;;;;;;6.07;4.43;;;23.60;95.90;;;;;;5017740;28;20128;-78
2021/07/25 09:25:49;;;;;;;7.43;4.10;;;23.60;95.70;;;;;;5031523;28;20073;-78
2021/07/25 09:28:32;;;;;;;5.85;3.70;;;23.50;95.80;;;;;;5030568;28;20137;-80
2021/07/25 09:31:13;;;;;;;5.47;3.85;;;23.50;95.80;;;;;;5030561;28;20053;-79
2021/07/25 09:33:44;;;;;;;5.80;3.75;;;23.50;95.80;;;;;;5030755;28;20045;-77
2021/07/25 09:36:15;;;;;;;6.45;3.97;;;23.50;95.80;;;;;;5030384;28;20077;-77
2021/07/25 09:38:45;;;;;;;6.95;3.90;;;23.40;95.80;;;;;;5030012;28;20049;-79
2021/07/25 09:41:23;;;;;;;6.00;3.85;;;23.40;95.90;;;;;;5028854;28;20422;-78
2021/07/25 09:44:08;;;;;;;6.80;4.10;;;23.40;95.90;;;;;;5024976;28;20596;-79
2021/07/25 09:46:48;;;;;;;6.57;4.25;;;23.40;95.90;;;;;;5024149;28;20041;-80
2021/07/25 09:49:17;;;;;;;5.97;4.13;;;23.20;96.00;;;;;;5030971;28;20052;-77
2021/07/25 09:51:45;;;;;;;6.53;4.22;;;23.20;96.20;;;;;;5030340;28;20056;-79
2021/07/25 09:54:12;;;;;;;6.47;4.22;;;23.10;96.60;;;;;;5029838;28;20049;-77
2021/07/25 09:56:42;;;;;;;7.05;4.65;;;23.10;96.70;;;;;;5029490;28;20049;-80
2021/07/25 09:59:27;;;;;;;6.45;3.92;;;23.10;96.50;;;;;;5029535;28;20041;-78
2021/07/25 10:01:53;;;;;;;;;;;23.00;96.60;;;;;;5026600;28;20045;-79
2021/07/25 10:04:23;;;;;;;6.28;3.58;;;23.10;96.70;;;;;;5029792;28;19929;-80
2021/07/25 10:06:53;;;;;;;6.32;4.20;;;23.10;96.80;;;;;;5030867;28;20165;-79
2021/07/25 10:09:21;;;;;;;8.35;4.20;;;23.10;96.90;;;;;;5029726;28;20057;-80
2021/07/25 10:11:55;;;;;;;7.80;4.55;;;23.10;97.30;;;;;;5030449;28;20051;-78
2021/07/25 10:14:23;;;;;;;7.93;4.95;;;23.10;97.50;;;;;;5029782;28;20492;-79
2021/07/25 10:16:56;;;;;;;8.50;4.72;;;23.00;97.80;;;;;;5029778;28;20465;-77
2021/07/25 10:19:29;;;;;;;6.18;4.57;;;23.10;98.00;;;;;;5029845;28;20046;-79
2021/07/25 10:21:58;;;;;;;8.82;5.18;;;23.00;98.20;;;;;;5029924;28;20055;-80
2021/07/25 10:24:27;;;;;;;6.97;4.78;;;23.00;98.20;;;;;;5029600;28;20044;-80
2021/07/25 10:26:58;;;;;;;7.28;4.80;;;23.00;98.10;;;;;;5029683;28;20144;-79
2021/07/25 10:29:29;;;;;;;8.15;4.60;;;23.00;98.10;;;;;;5029744;28;20053;-80
2021/07/25 10:31:56;;;;;;;8.20;4.90;;;23.00;98.10;;;;;;5029723;28;20130;-80
2021/07/25 10:34:23;;;;;;;7.97;4.70;;;23.00;97.80;;;;;;5029815;28;20050;-80
2021/07/25 10:36:51;;;;;;;10.13;5.88;;;23.00;97.70;;;;;;5029313;28;20508;-78
2021/07/25 10:39:19;;;;;;;8.82;5.05;;;23.00;97.80;;;;;;5029988;28;20060;-78
2021/07/25 10:41:49;;;;;;;7.93;4.97;;;23.00;97.80;;;;;;5034098;28;20049;-79
2021/07/25 10:44:18;;;;;;;8.05;5.20;;;23.00;97.90;;;;;;5031375;28;20052;-77
2021/07/25 10:46:45;;;;;;;9.35;5.68;;;23.00;97.90;;;;;;5031131;28;20070;-75
2021/07/25 10:49:17;;;;;;;7.07;5.00;;;23.00;98.00;;;;;;5016119;28;20133;-79
2021/07/25 10:51:59;;;;;;;6.32;4.30;;;23.00;97.90;;;;;;5016344;28;20045;-78
2021/07/25 10:54:34;;;;;;;7.95;4.95;;;23.10;97.90;;;;;;5031827;28;20136;-80
2021/07/25 10:57:03;;;;;;;7.60;4.72;;;23.10;97.80;;;;;;5032852;28;20050;-77
2021/07/25 10:59:45;;;;;;;8.25;5.10;;;23.00;97.40;;;;;;5021745;28;20104;-78
2021/07/25 11:02:14;;;;;;;6.68;4.45;;;23.10;97.50;;;;;;5029532;28;20053;-77
2021/07/25 11:05:18;;;;;;;6.57;4.82;;;23.10;97.50;;;;;;5033310;28;20045;-76
2021/07/25 11:07:56;;;;;;;;;;;23.00;97.40;;;;;;5028199;28;20076;-78
2021/07/25 11:10:34;;;;;;;7.00;4.72;;;23.00;97.80;;;;;;5032783;28;19928;-78
2021/07/25 11:13:21;;;;;;;6.93;4.30;;;23.00;98.00;;;;;;5032229;28;20168;-79
2021/07/25 11:15:50;;;;;;;6.97;4.13;;;23.00;98.00;;;;;;5027322;28;20054;-77
2021/07/25 11:18:36;;;;;;;6.00;4.03;;;23.10;97.90;;;;;;5030559;28;20124;-79
2021/07/25 11:21:07;;;;;;;16.20;9.88;;;23.10;98.00;;;;;;5028497;28;20060;-80
2021/07/25 11:23:39;;;;;;;9.57;6.30;;;23.20;98.10;;;;;;5023466;28;20450;-79
2021/07/25 11:26:36;;;;;;;7.55;5.05;;;23.20;98.10;;;;;;5032057;28;20097;-78
2021/07/25 11:29:19;;;;;;;7.95;5.38;;;23.20;98.10;;;;;;5029205;28;20092;-78
2021/07/25 11:31:49;;;;;;;9.43;5.60;;;23.20;98.10;;;;;;5026344;28;20046;-78
2021/07/25 11:34:31;;;;;;;9.02;5.72;;;23.10;98.20;;;;;;5032077;28;20060;-80
2021/07/25 11:37:02;;;;;;;8.68;5.30;;;23.00;98.40;;;;;;5030793;28;20060;-78
2021/07/25 11:39:29;;;;;;;8.63;4.85;;;23.00;98.60;;;;;;5024744;28;20055;-78
2021/07/25 11:41:57;;;;;;;7.93;5.03;;;22.90;98.80;;;;;;5032617;28;20048;-80
2021/07/25 11:44:28;;;;;;;7.28;4.80;;;22.80;98.90;;;;;;5029577;28;20041;-77
2021/07/25 11:46:58;;;;;;;7.43;4.88;;;22.80;99.20;;;;;;5033676;28;20127;-78
2021/07/25 11:49:26;;;;;;;6.68;5.22;;;22.80;99.30;;;;;;5033200;28;20566;-78
2021/07/25 11:52:00;;;;;;;7.35;4.90;;;22.70;99.40;;;;;;5033736;28;20076;-78
2021/07/25 11:54:30;;;;;;;7.15;4.35;;;22.60;99.40;;;;;;5030747;28;20449;-77
2021/07/25 11:57:07;;;;;;;6.75;4.55;;;22.60;99.50;;;;;;5030005;28;20124;-77
2021/07/25 11:59:37;;;;;;;6.93;4.95;;;22.60;99.70;;;;;;5028504;28;20056;-77
2021/07/25 12:02:09;;;;;;;7.35;4.85;;;22.60;99.60;;;;;;5022522;28;20041;-79
2021/07/25 12:04:41;;;;;;;7.25;4.97;;;22.50;99.30;;;;;;5028469;28;20060;-81
2021/07/25 12:07:15;;;;;;;7.90;4.90;;;22.50;99.70;;;;;;5030527;28;20490;-79
2021/07/25 12:09:46;;;;;;;7.47;5.10;;;22.50;99.50;;;;;;5031386;28;20384;-79
2021/07/25 12:12:16;;;;;;;8.55;5.03;;;22.40;99.30;;;;;;5026910;28;20134;-79
2021/07/25 12:14:47;;;;;;;6.45;4.47;;;22.40;99.20;;;;;;5030199;28;20080;-79
2021/07/25 12:17:44;;;;;;;6.40;4.63;;;22.40;99.20;;;;;;5012937;28;20067;-78
2021/07/25 12:20:14;;;;;;;7.88;4.95;;;22.40;99.10;;;;;;5028029;28;20413;-79
2021/07/25 12:22:50;;;;;;;7.85;4.63;;;22.30;99.10;;;;;;5034125;28;20490;-76
2021/07/25 12:25:18;;;;;;;8.45;4.88;;;22.30;99.10;;;;;;5038429;28;20124;-79
2021/07/25 12:27:46;;;;;;;7.60;4.55;;;22.20;99.00;;;;;;5034636;28;20076;-79
2021/07/25 12:30:18;;;;;;;6.60;4.15;;;22.20;99.20;;;;;;5031159;28;20045;-80
2021/07/25 12:32:47;;;;;;;7.45;5.00;;;22.20;99.30;;;;;;5020607;28;20125;-79
2021/07/25 12:35:17;;;;;;;6.82;4.45;;;22.20;99.40;;;;;;5022358;28;20067;-76
2021/07/25 12:37:45;;;;;;;7.25;4.75;;;22.20;99.40;;;;;;5020283;28;20045;-78
2021/07/25 12:40:16;;;;;;;6.97;4.30;;;22.20;99.20;;;;;;5021762;28;20190;-77
2021/07/25 12:42:48;;;;;;;7.03;4.60;;;22.20;99.30;;;;;;5017887;28;20133;-77
2021/07/25 12:45:30;;;;;;;6.78;4.60;;;22.30;99.50;;;;;;5015880;28;20512;-78
2021/07/25 12:48:38;;;;;;;6.63;4.60;;;22.30;99.50;;;;;;5019337;28;20487;-80
2021/07/25 12:51:20;;;;;;;8.98;5.20;;;22.30;99.70;;;;;;5028681;28;20437;-80
2021/07/25 12:53:56;;;;;;;7.63;4.88;;;22.40;99.90;;;;;;5026316;28;20045;-78
2021/07/25 12:56:25;;;;;;;7.70;4.90;;;22.40;99.90;;;;;;5030586;28;20480;-77
2021/07/25 12:58:56;;;;;;;8.82;5.20;;;22.40;99.90;;;;;;5026243;28;20390;-78
2021/07/25 13:04:25;;;;;;;8.32;4.47;;;22.40;99.90;;;;;;5023387;28;20057;-79